createdAt,value
2022-08-08T00:15:24.184Z,44.32
2022-08-08T00:45:29.349Z,45.04
2022-08-08T01:15:43.681Z,45.83
2022-08-08T01:45:23.481Z,46.4
2022-08-08T02:15:23.167Z,47.1
2022-08-08T02:45:23.152Z,47.71
2022-08-08T03:15:56.773Z,48.31
2022-08-08T03:46:07.482Z,48.84
2022-08-08T04:15:23.177Z,49.53
2022-08-08T04:45:23.174Z,50.11
2022-08-08T05:15:23.180Z,50.53
2022-08-08T05:45:25.520Z,50.71
2022-08-08T06:15:31.446Z,50.74
2022-08-08T06:45:23.184Z,50.51
2022-08-08T07:16:03.489Z,50.18
2022-08-08T07:45:23.215Z,49.79
2022-08-08T08:15:23.478Z,49.16
2022-08-08T08:45:23.785Z,48.23
2022-08-08T09:15:41.669Z,47.25
2022-08-08T09:45:55.467Z,46.12
2022-08-08T10:15:24.322Z,45.39
2022-08-08T10:45:23.238Z,44.41
2022-08-08T11:15:23.267Z,43.79
2022-08-08T11:45:23.256Z,42.56
2022-08-08T12:15:23.258Z,40.99
2022-08-08T12:45:58.915Z,38.81
2022-08-08T13:15:23.266Z,36.88
2022-08-08T13:45:24.278Z,34.09
2022-08-08T14:15:23.280Z,35.6
2022-08-08T14:45:26.798Z,35.45
2022-08-08T15:16:03.026Z,34.7
2022-08-08T15:45:23.283Z,33.39
2022-08-08T16:15:23.300Z,33.23
2022-08-08T16:46:36.416Z,31.52
2022-08-08T17:15:23.427Z,32.34
2022-08-08T17:45:24.297Z,32.89
2022-08-08T18:15:23.334Z,33.27
2022-08-08T18:46:52.288Z,34.01
2022-08-08T19:15:26.107Z,34.6
2022-08-08T19:45:58.658Z,34.88
2022-08-08T20:15:23.336Z,35.22
2022-08-08T20:45:57.284Z,35.58
2022-08-08T21:16:06.259Z,36.02
2022-08-08T21:48:01.631Z,36.44
2022-08-08T22:15:23.375Z,37.03
2022-08-08T22:45:23.339Z,37.61
2022-08-08T23:16:38.280Z,38.2
2022-08-08T23:49:01.453Z,38.8
